Time;durP1;ratioP1;P1;durP2;ratioP2;P2;SDS_P1;SDS_P2;PMS_P1;PMS_P2;Temp;Humidity;BMP_temperature;BMP_pressure;BME280_temperature;BME280_humidity;BME280_pressure;Samples;Min_cycle;Max_cycle;Signal;HPM_P1;HPM_P2
2023/02/15 00:01:11;;;;;;;8.05;3.00;;;18.40;46.00;;;;;;5119959;28;20202;-83
2023/02/15 00:03:38;;;;;;;7.43;3.10;;;18.40;46.00;;;;;;5119452;28;20512;-84
2023/02/15 00:06:04;;;;;;;6.97;2.95;;;18.40;46.00;;;;;;5120900;28;20160;-83
2023/02/15 00:08:30;;;;;;;6.88;2.95;;;18.40;45.90;;;;;;5137833;27;20151;-83
2023/02/15 00:11:05;;;;;;;5.63;3.00;;;18.50;45.90;;;;;;5120192;28;20260;-85
2023/02/15 00:13:31;;;;;;;5.47;2.60;;;18.50;45.90;;;;;;5120595;27;20160;-82
2023/02/15 00:16:02;;;;;;;4.75;3.13;;;18.50;45.90;;;;;;5136995;27;20166;-83
2023/02/15 00:18:28;;;;;;;4.05;2.80;;;18.50;45.90;;;;;;5137428;27;20202;-83
2023/02/15 00:20:54;;;;;;;6.47;2.90;;;18.50;45.90;;;;;;5137353;27;20149;-84
2023/02/15 00:23:21;;;;;;;6.57;3.10;;;18.40;46.00;;;;;;5120330;28;20208;-85
2023/02/15 00:25:47;;;;;;;4.45;3.00;;;18.40;46.00;;;;;;5136908;27;20159;-81
2023/02/15 00:28:13;;;;;;;6.63;3.00;;;18.40;46.00;;;;;;5120093;28;20148;-83
2023/02/15 00:30:39;;;;;;;6.68;3.10;;;18.40;46.00;;;;;;5137408;27;20197;-84
2023/02/15 00:33:05;;;;;;;6.00;3.00;;;18.40;46.00;;;;;;5119763;28;20194;-84
2023/02/15 00:35:32;;;;;;;9.02;3.30;;;18.40;46.00;;;;;;5136907;27;20156;-83
2023/02/15 00:38:00;;;;;;;4.80;2.92;;;18.40;46.00;;;;;;5120422;28;20264;-82
2023/02/15 00:40:28;;;;;;;6.25;2.80;;;18.40;46.00;;;;;;5119629;28;20156;-83
2023/02/15 00:42:54;;;;;;;5.03;2.67;;;18.40;46.00;;;;;;5119757;28;20164;-83
2023/02/15 00:45:21;;;;;;;5.68;3.10;;;18.40;46.00;;;;;;5119833;28;20158;-84
2023/02/15 00:47:46;;;;;;;5.57;3.10;;;18.40;46.00;;;;;;5119285;28;20167;-82
2023/02/15 00:50:13;;;;;;;4.80;3.05;;;18.30;46.70;;;;;;5136794;27;20160;-84
2023/02/15 00:52:41;;;;;;;5.53;3.03;;;18.30;46.10;;;;;;5118821;28;20179;-84
2023/02/15 00:55:08;;;;;;;4.25;2.75;;;18.30;46.10;;;;;;5120660;28;20157;-82
2023/02/15 00:57:35;;;;;;;4.82;2.90;;;18.30;46.30;;;;;;5134729;27;20356;-82
2023/02/15 01:00:01;;;;;;;5.38;2.95;;;18.30;46.20;;;;;;5120868;28;20155;-82
2023/02/15 01:02:26;;;;;;;3.80;2.90;;;18.30;46.30;;;;;;5119522;28;20164;-84
2023/02/15 01:04:54;;;;;;;4.55;2.95;;;18.20;46.30;;;;;;5120499;28;20153;-82
2023/02/15 01:07:20;;;;;;;6.43;3.25;;;18.20;46.30;;;;;;5118901;28;20156;-82
2023/02/15 01:09:45;;;;;;;8.60;2.97;;;18.20;46.40;;;;;;5118669;28;20156;-84
2023/02/15 01:12:11;;;;;;;6.07;2.90;;;18.30;46.30;;;;;;5100943;28;20210;-84
2023/02/15 01:14:37;;;;;;;4.72;3.05;;;18.20;46.30;;;;;;5119738;28;20155;-82
2023/02/15 01:17:03;;;;;;;5.75;2.65;;;18.20;46.30;;;;;;5117928;28;20191;-83
2023/02/15 01:19:32;;;;;;;6.30;2.70;;;18.20;46.30;;;;;;5118452;28;20247;-81
2023/02/15 01:21:58;;;;;;;4.93;2.80;;;18.20;46.40;;;;;;5118099;28;20152;-83
2023/02/15 01:24:24;;;;;;;7.43;3.33;;;18.20;46.40;;;;;;5101060;28;20570;-82
2023/02/15 01:26:49;;;;;;;5.07;3.08;;;18.20;46.40;;;;;;5118242;28;20152;-83
2023/02/15 01:29:15;;;;;;;4.60;3.03;;;18.20;46.40;;;;;;5116707;28;20175;-84
2023/02/15 01:31:41;;;;;;;7.65;3.10;;;18.20;46.50;;;;;;5100266;28;20532;-85
2023/02/15 01:34:07;;;;;;;4.68;3.28;;;18.20;46.50;;;;;;5117370;28;20203;-85
2023/02/15 01:36:33;;;;;;;5.40;2.97;;;18.20;46.50;;;;;;5116996;28;20188;-82
2023/02/15 01:39:00;;;;;;;5.18;2.60;;;18.20;46.50;;;;;;5134383;27;20176;-84
2023/02/15 01:41:27;;;;;;;3.85;2.90;;;18.10;46.50;;;;;;5116995;28;20206;-84
2023/02/15 01:43:55;;;;;;;5.47;2.92;;;18.10;46.60;;;;;;5134385;27;20152;-85
2023/02/15 01:46:26;;;;;;;7.03;2.80;;;18.10;46.60;;;;;;5134995;27;20202;-82
2023/02/15 01:49:00;;;;;;;5.57;2.40;;;18.10;46.60;;;;;;5119481;28;20606;-81
2023/02/15 01:51:27;;;;;;;5.10;3.00;;;18.10;46.60;;;;;;5135193;27;20290;-81
2023/02/15 01:53:59;;;;;;;5.65;2.80;;;18.10;46.50;;;;;;5117581;28;20494;-82
2023/02/15 01:56:27;;;;;;;5.47;2.88;;;18.10;46.50;;;;;;5100348;28;20713;-84
2023/02/15 01:58:57;;;;;;;6.10;3.05;;;18.20;46.60;;;;;;5134286;27;20638;-82
2023/02/15 02:01:24;;;;;;;5.53;2.72;;;18.10;46.50;;;;;;5100731;28;20182;-83
2023/02/15 02:04:02;;;;;;;4.90;2.75;;;18.10;46.50;;;;;;5135146;27;20152;-82
2023/02/15 02:06:27;;;;;;;5.13;2.67;;;18.10;46.50;;;;;;5135896;27;20156;-82
2023/02/15 02:08:53;;;;;;;6.72;3.40;;;18.10;46.60;;;;;;5134502;27;20566;-83
2023/02/15 02:11:19;;;;;;;4.38;2.65;;;18.10;46.70;;;;;;5134552;27;20239;-84
2023/02/15 02:13:45;;;;;;;4.13;2.83;;;18.10;46.70;;;;;;5135063;27;20188;-84
2023/02/15 02:16:21;;;;;;;7.13;2.88;;;18.10;46.70;;;;;;5116865;28;20167;-82
2023/02/15 02:19:10;;;;;;;5.38;2.90;;;18.00;46.70;;;;;;5135043;27;20163;-81
2023/02/15 02:22:13;;;;;;;4.57;3.03;;;18.00;46.70;;;;;;5118793;28;20149;-83
2023/02/15 02:25:08;;;;;;;5.07;2.40;;;18.10;46.70;;;;;;5118806;28;20169;-82
2023/02/15 02:27:58;;;;;;;4.63;2.90;;;18.10;46.70;;;;;;5131936;28;20206;-82
2023/02/15 02:31:04;;;;;;;4.65;2.90;;;18.10;46.60;;;;;;5116299;28;20164;-84
2023/02/15 02:33:49;;;;;;;5.00;2.65;;;18.10;46.70;;;;;;5116876;28;20160;-81
2023/02/15 02:36:24;;;;;;;7.72;3.55;;;18.00;46.70;;;;;;5117012;28;20164;-82
2023/02/15 02:39:09;;;;;;;3.70;2.80;;;18.00;46.70;;;;;;5134960;27;20633;-82
2023/02/15 02:41:47;;;;;;;6.45;2.78;;;18.00;46.70;;;;;;5117429;28;20152;-82
2023/02/15 02:44:18;;;;;;;4.80;2.72;;;18.00;46.70;;;;;;5134687;27;20148;-84
2023/02/15 02:46:59;;;;;;;4.57;2.83;;;17.90;46.80;;;;;;5116910;28;20216;-83
2023/02/15 02:49:34;;;;;;;4.80;3.10;;;18.00;46.80;;;;;;5117681;28;20542;-84
2023/02/15 02:52:02;;;;;;;5.13;2.75;;;18.00;46.80;;;;;;5117116;28;20159;-83
2023/02/15 02:54:28;;;;;;;6.18;2.80;;;18.00;46.80;;;;;;5116716;28;20182;-85
2023/02/15 02:56:54;;;;;;;5.00;3.10;;;17.90;46.70;;;;;;5116713;28;20694;-85
2023/02/15 02:59:23;;;;;;;5.28;3.00;;;18.10;46.80;;;;;;5116698;28;20174;-82
2023/02/15 03:01:52;;;;;;;5.63;3.28;;;18.00;46.80;;;;;;5117481;28;20160;-83
2023/02/15 03:04:24;;;;;;;4.75;2.80;;;18.00;46.80;;;;;;5117076;28;20166;-84
2023/02/15 03:06:55;;;;;;;4.15;2.80;;;18.00;46.70;;;;;;5134517;27;20159;-84
2023/02/15 03:09:41;;;;;;;4.82;2.80;;;18.00;46.70;;;;;;5134371;27;20148;-84
2023/02/15 03:12:16;;;;;;;6.90;2.97;;;18.00;46.80;;;;;;5117962;28;20171;-81
2023/02/15 03:14:44;;;;;;;4.85;3.13;;;18.00;46.80;;;;;;5116258;28;20148;-82
2023/02/15 03:17:11;;;;;;;6.28;3.10;;;18.00;46.80;;;;;;5133985;27;20191;-83
2023/02/15 03:19:37;;;;;;;6.80;3.10;;;18.00;46.90;;;;;;5115895;28;20164;-84
2023/02/15 03:22:23;;;;;;;3.95;2.75;;;18.00;46.70;;;;;;5137201;27;20239;-84
2023/02/15 03:25:00;;;;;;;6.43;3.05;;;18.00;46.70;;;;;;5119755;28;20167;-82
2023/02/15 03:27:27;;;;;;;5.25;2.92;;;17.90;46.80;;;;;;5137409;27;20152;-82
2023/02/15 03:29:56;;;;;;;4.63;3.03;;;17.90;46.70;;;;;;5120227;27;20167;-81
2023/02/15 03:32:22;;;;;;;5.15;3.00;;;18.00;46.80;;;;;;5137200;27;20187;-81
2023/02/15 03:34:50;;;;;;;5.18;2.67;;;18.00;46.80;;;;;;5136876;27;20156;-83
2023/02/15 03:37:26;;;;;;;6.60;2.80;;;18.00;46.80;;;;;;5119926;28;20597;-82
2023/02/15 03:41:08;;;;;;;3.47;2.60;;;18.00;46.90;;;;;;5137688;27;20293;-83
2023/02/15 03:42:43;;;;;;;4.72;2.60;;;17.90;46.90;;;;;;5120128;28;20180;-82
2023/02/15 03:45:11;;;;;;;4.05;2.55;;;17.90;46.90;;;;;;5103215;28;20160;-81
2023/02/15 03:47:39;;;;;;;4.88;2.83;;;17.90;46.80;;;;;;5103145;28;20160;-84
2023/02/15 03:53:01;;;;;;;4.00;2.80;;;17.90;46.80;;;;;;5135644;27;20637;-82
2023/02/15 03:55:27;;;;;;;3.55;2.65;;;17.90;46.80;;;;;;5119947;27;20152;-81
2023/02/15 04:03:33;;;;;;;4.18;2.88;;;17.90;47.00;;;;;;5119537;28;20160;-83
2023/02/15 04:06:02;;;;;;;5.50;2.90;;;17.90;46.90;;;;;;5103978;28;20171;-82
2023/02/15 04:11:09;;;;;;;3.75;2.67;;;17.90;47.00;;;;;;5135021;27;20161;-84
2023/02/15 04:13:35;;;;;;;3.83;2.58;;;17.90;46.80;;;;;;5118917;28;20151;-84
2023/02/15 04:16:03;;;;;;;4.45;2.70;;;17.90;46.90;;;;;;5136241;27;20207;-84
2023/02/15 04:26:38;;;;;;;3.33;2.80;;;17.90;47.00;;;;;;5119505;28;20162;-84
2023/02/15 04:29:04;;;;;;;4.88;2.55;;;17.80;47.10;;;;;;5101843;28;20247;-84
2023/02/15 04:31:29;;;;;;;3.53;2.40;;;17.80;47.10;;;;;;5118851;28;20235;-83
2023/02/15 04:33:56;;;;;;;4.80;2.95;;;17.80;47.00;;;;;;5136438;27;20231;-85
2023/02/15 04:36:22;;;;;;;3.78;2.70;;;17.90;47.10;;;;;;5118328;28;20164;-81
2023/02/15 04:38:47;;;;;;;3.80;2.65;;;17.90;47.10;;;;;;5118079;28;20153;-84
2023/02/15 04:41:13;;;;;;;3.40;2.78;;;17.80;47.10;;;;;;5135582;27;20148;-83
2023/02/15 04:43:39;;;;;;;5.35;2.60;;;17.90;47.00;;;;;;5118629;28;20243;-83
2023/02/15 04:46:04;;;;;;;4.43;2.70;;;17.90;47.10;;;;;;5117994;28;20152;-85
2023/02/15 04:48:30;;;;;;;4.53;2.60;;;17.80;47.00;;;;;;5135749;27;20561;-84
2023/02/15 04:50:56;;;;;;;4.63;2.63;;;17.90;47.10;;;;;;5135333;27;20158;-83
2023/02/15 04:53:21;;;;;;;4.05;2.70;;;17.80;47.10;;;;;;5118169;28;20160;-85
2023/02/15 04:55:47;;;;;;;4.30;2.60;;;17.80;47.10;;;;;;5118249;27;20385;-83
2023/02/15 04:58:13;;;;;;;4.85;2.80;;;17.80;47.10;;;;;;5118413;28;20183;-83
2023/02/15 05:00:39;;;;;;;6.50;2.60;;;17.80;47.10;;;;;;5100695;28;20168;-83
2023/02/15 05:03:06;;;;;;;3.67;2.70;;;17.90;47.10;;;;;;5135329;27;20167;-84
2023/02/15 05:05:33;;;;;;;3.22;2.40;;;17.80;47.20;;;;;;5119822;28;20160;-82
2023/02/15 05:07:58;;;;;;;3.60;2.67;;;17.80;47.20;;;;;;5101032;28;20164;-84
2023/02/15 05:10:25;;;;;;;3.67;2.72;;;17.80;47.20;;;;;;5134710;27;20149;-84
2023/02/15 05:12:51;;;;;;;5.10;2.60;;;17.70;47.10;;;;;;5135412;27;20180;-81
2023/02/15 05:15:18;;;;;;;5.72;3.25;;;17.80;47.20;;;;;;5118469;28;20206;-83
2023/02/15 05:17:45;;;;;;;3.67;2.53;;;17.80;47.30;;;;;;5118020;28;20662;-81
2023/02/15 05:20:11;;;;;;;4.90;2.58;;;17.80;47.20;;;;;;5117680;28;20174;-82
2023/02/15 05:22:38;;;;;;;3.72;2.80;;;17.80;47.20;;;;;;5101016;28;20195;-83
2023/02/15 05:30:28;;;;;;;4.40;2.70;;;17.80;47.30;;;;;;5133209;27;20152;-83
2023/02/15 05:32:54;;;;;;;3.80;2.80;;;17.70;47.30;;;;;;5100699;28;20167;-82
2023/02/15 05:35:19;;;;;;;3.85;2.60;;;17.80;47.30;;;;;;5100688;28;20167;-81
2023/02/15 05:37:45;;;;;;;4.15;2.67;;;17.80;47.30;;;;;;5117895;28;20195;-83
2023/02/15 05:40:11;;;;;;;3.33;2.50;;;17.80;47.20;;;;;;5117881;27;20167;-83
2023/02/15 05:42:38;;;;;;;3.83;2.65;;;17.70;47.20;;;;;;5134036;27;20153;-82
2023/02/15 05:45:04;;;;;;;4.13;3.03;;;17.70;47.30;;;;;;5117926;28;20217;-83
2023/02/15 05:47:30;;;;;;;3.42;2.63;;;17.70;47.20;;;;;;5118472;28;20168;-82
2023/02/15 05:50:02;;;;;;;5.65;2.88;;;17.70;47.30;;;;;;5119058;28;20156;-81
2023/02/15 05:52:29;;;;;;;4.05;2.80;;;17.70;47.30;;;;;;5100756;28;20645;-84
2023/02/15 05:54:55;;;;;;;3.90;2.60;;;17.70;47.20;;;;;;5117399;28;20156;-84
2023/02/15 05:57:20;;;;;;;4.00;2.63;;;17.80;47.30;;;;;;5119078;28;20224;-81
2023/02/15 05:59:46;;;;;;;5.45;2.78;;;17.80;47.30;;;;;;5117127;28;20160;-82
2023/02/15 06:02:12;;;;;;;4.28;2.50;;;17.70;47.30;;;;;;5100239;28;20189;-81
2023/02/15 06:04:41;;;;;;;4.43;2.67;;;17.70;47.30;;;;;;5117719;28;20144;-83
2023/02/15 06:07:07;;;;;;;4.50;2.42;;;17.70;47.30;;;;;;5134499;27;20163;-83
2023/02/15 06:09:34;;;;;;;4.40;2.80;;;17.70;47.30;;;;;;5117309;28;20156;-84
2023/02/15 06:12:00;;;;;;;3.63;2.58;;;17.70;47.30;;;;;;5134975;27;20144;-81
2023/02/15 06:14:26;;;;;;;5.13;2.88;;;17.70;47.30;;;;;;5134619;28;20197;-82
2023/02/15 06:16:51;;;;;;;4.68;2.58;;;17.70;47.30;;;;;;5116499;28;20265;-85
2023/02/15 06:19:17;;;;;;;4.15;2.78;;;17.70;47.20;;;;;;5116428;28;20164;-81
2023/02/15 06:21:47;;;;;;;3.80;2.42;;;17.80;47.30;;;;;;5133946;27;20152;-81
2023/02/15 06:24:14;;;;;;;3.85;2.55;;;17.70;47.20;;;;;;5099742;28;20559;-84
2023/02/15 06:26:39;;;;;;;4.22;2.40;;;17.70;47.30;;;;;;5122309;28;20160;-82
2023/02/15 06:29:05;;;;;;;4.28;2.72;;;17.70;47.30;;;;;;5126376;28;20255;-82
2023/02/15 06:31:33;;;;;;;3.95;2.53;;;17.70;47.30;;;;;;5125379;28;20163;-82
2023/02/15 06:34:01;;;;;;;3.65;2.65;;;17.70;47.30;;;;;;5108529;28;20615;-84
2023/02/15 06:36:29;;;;;;;4.20;3.00;;;17.70;47.30;;;;;;5093335;28;20167;-82
2023/02/15 06:38:57;;;;;;;5.25;2.60;;;17.70;47.30;;;;;;5092027;28;20223;-83
2023/02/15 06:41:23;;;;;;;3.63;2.67;;;17.70;47.30;;;;;;5089652;28;20160;-84
2023/02/15 06:43:51;;;;;;;2.80;2.17;;;17.70;47.30;;;;;;5107131;28;20156;-82
2023/02/15 06:46:17;;;;;;;3.47;2.60;;;17.70;47.30;;;;;;5125378;28;20144;-83
2023/02/15 06:48:43;;;;;;;3.25;2.40;;;17.70;47.30;;;;;;5107791;28;20163;-82
2023/02/15 06:51:08;;;;;;;4.07;2.40;;;17.70;47.20;;;;;;5090637;28;20171;-83
2023/02/15 06:53:35;;;;;;;4.22;2.50;;;17.70;47.30;;;;;;5090636;28;20174;-83
2023/02/15 06:56:02;;;;;;;3.35;2.70;;;17.70;47.30;;;;;;5088148;28;20238;-83
2023/02/15 06:58:31;;;;;;;2.85;2.22;;;17.70;47.20;;;;;;5121409;28;20560;-83
2023/02/15 07:00:57;;;;;;;5.05;2.60;;;17.70;47.30;;;;;;5111833;28;20172;-85
2023/02/15 07:03:24;;;;;;;3.97;2.80;;;17.70;47.30;;;;;;5127163;27;20174;-82
2023/02/15 07:05:59;;;;;;;3.67;2.55;;;17.70;47.30;;;;;;5116029;28;20191;-82
2023/02/15 07:08:25;;;;;;;6.47;2.85;;;17.70;47.20;;;;;;5123664;27;20236;-86
2023/02/15 07:10:54;;;;;;;3.67;2.50;;;17.80;47.30;;;;;;5128031;27;20151;-85
2023/02/15 07:13:22;;;;;;;3.47;2.40;;;17.70;47.30;;;;;;5112969;27;20167;-83
2023/02/15 07:15:48;;;;;;;3.63;2.45;;;17.70;47.30;;;;;;5094583;28;20180;-84
2023/02/15 07:18:35;;;;;;;4.60;2.70;;;17.70;47.20;;;;;;5107288;28;20192;-89
2023/02/15 07:21:07;;;;;;;2.95;2.50;;;17.70;47.10;;;;;;5088915;28;20268;-89
2023/02/15 07:23:47;;;;;;;3.65;2.60;;;17.80;47.10;;;;;;5097098;28;20189;-88
2023/02/15 07:26:39;;;;;;;4.63;2.65;;;17.80;47.00;;;;;;5052509;28;20186;-89
2023/02/15 07:32:11;;;;;;;6.15;2.70;;;18.00;47.10;;;;;;4971424;28;20181;-87
2023/02/15 07:34:37;;;;;;;5.82;2.80;;;18.00;47.40;;;;;;4990752;28;20280;-86
2023/02/15 07:40:39;;;;;;;4.30;2.63;;;17.90;47.30;;;;;;4920790;29;20733;-87
2023/02/15 07:43:16;;;;;;;4.30;2.80;;;17.90;47.10;;;;;;4903679;29;20187;-87
2023/02/15 07:45:48;;;;;;;4.68;2.90;;;18.00;47.40;;;;;;4920697;29;20657;-87
2023/02/15 07:48:20;;;;;;;3.65;2.80;;;18.00;47.10;;;;;;4899903;29;20667;-83
2023/02/15 07:50:48;;;;;;;3.42;2.70;;;18.00;47.00;;;;;;4884583;29;20641;-84
2023/02/15 07:53:54;;;;;;;4.85;2.78;;;18.10;46.80;;;;;;4910198;29;20183;-88
2023/02/15 07:56:22;;;;;;;3.20;2.50;;;18.10;46.60;;;;;;4941809;29;20213;-84
2023/02/15 07:58:52;;;;;;;5.25;2.63;;;18.10;46.50;;;;;;4930544;29;20184;-84
2023/02/15 08:01:22;;;;;;;5.53;2.70;;;18.10;46.60;;;;;;4946839;29;20191;-84
2023/02/15 08:03:48;;;;;;;4.78;2.85;;;18.10;46.80;;;;;;4931766;29;20249;-84
2023/02/15 08:07:06;;;;;;;4.88;2.35;;;18.10;46.60;;;;;;4930229;29;20240;-84
2023/02/15 08:09:32;;;;;;;3.60;2.55;;;18.20;46.60;;;;;;4978544;28;20192;-84
2023/02/15 08:11:58;;;;;;;3.17;2.40;;;18.20;46.80;;;;;;5006161;28;20253;-84
2023/02/15 08:14:32;;;;;;;5.82;2.63;;;18.30;46.40;;;;;;5028326;28;20186;-84
2023/02/15 08:17:02;;;;;;;5.10;2.15;;;18.30;46.50;;;;;;5010989;28;20593;-83
2023/02/15 08:19:32;;;;;;;4.93;2.50;;;18.30;46.70;;;;;;5035433;28;20263;-84
2023/02/15 08:22:06;;;;;;;5.22;2.55;;;18.30;46.60;;;;;;5089764;28;20201;-83
2023/02/15 08:24:37;;;;;;;3.83;2.20;;;18.30;46.60;;;;;;5108024;27;20167;-84
2023/02/15 08:27:04;;;;;;;5.10;2.40;;;18.30;46.50;;;;;;5085570;28;20188;-84
2023/02/15 08:29:32;;;;;;;4.13;2.60;;;18.30;46.40;;;;;;5084751;28;20662;-84
2023/02/15 08:32:02;;;;;;;3.13;2.35;;;18.30;46.50;;;;;;5082742;28;20212;-84
2023/02/15 08:34:36;;;;;;;3.95;2.20;;;18.40;46.70;;;;;;5100942;28;20236;-83
2023/02/15 08:37:05;;;;;;;6.38;2.30;;;18.40;46.40;;;;;;5101505;28;20204;-84
2023/02/15 08:39:32;;;;;;;6.57;2.50;;;18.40;46.30;;;;;;5084642;28;20169;-84
2023/02/15 08:41:58;;;;;;;2.40;2.10;;;18.50;46.20;;;;;;5101373;28;20180;-84
2023/02/15 08:44:24;;;;;;;3.30;2.40;;;18.50;46.20;;;;;;5102480;28;20204;-85
2023/02/15 08:46:52;;;;;;;3.95;2.40;;;18.60;46.20;;;;;;5085842;28;20622;-85
2023/02/15 08:49:19;;;;;;;4.72;2.15;;;18.60;46.00;;;;;;5100384;28;20270;-85
2023/02/15 08:51:48;;;;;;;3.95;2.30;;;18.60;46.00;;;;;;5101085;28;20157;-84
2023/02/15 08:54:18;;;;;;;4.78;2.38;;;18.60;46.00;;;;;;5070088;28;20172;-84
2023/02/15 08:56:44;;;;;;;3.45;2.10;;;18.60;46.00;;;;;;5105361;28;20643;-84
2023/02/15 08:59:17;;;;;;;5.40;2.30;;;18.60;46.10;;;;;;5142035;27;20233;-84
2023/02/15 09:01:46;;;;;;;4.65;2.25;;;18.60;46.90;;;;;;5090674;28;20179;-85
2023/02/15 09:04:17;;;;;;;4.85;2.20;;;18.60;46.40;;;;;;5089324;28;20195;-84
2023/02/15 09:06:44;;;;;;;3.30;2.28;;;18.60;46.40;;;;;;5092473;28;20247;-84
2023/02/15 09:09:10;;;;;;;6.95;2.35;;;18.60;46.50;;;;;;5140800;27;20198;-85
2023/02/15 09:11:40;;;;;;;6.13;2.33;;;18.60;46.60;;;;;;5089901;28;20171;-84
2023/02/15 09:14:40;;;;;;;3.05;2.00;;;18.50;46.70;;;;;;5104891;27;20169;-85
2023/02/15 09:17:21;;;;;;;8.38;2.03;;;18.60;46.70;;;;;;5061627;28;20583;-84
2023/02/15 09:19:55;;;;;;;3.92;2.28;;;18.60;46.80;;;;;;5118370;28;20181;-85
2023/02/15 09:22:42;;;;;;;5.10;2.30;;;18.60;47.40;;;;;;5112750;28;20177;-84
2023/02/15 09:25:08;;;;;;;6.72;2.22;;;18.60;46.70;;;;;;5106322;28;20168;-85
2023/02/15 09:27:36;;;;;;;5.65;1.95;;;18.50;46.70;;;;;;5086570;28;20185;-87
2023/02/15 09:30:03;;;;;;;3.53;2.17;;;18.50;46.90;;;;;;5104001;28;20272;-85
2023/02/15 09:32:29;;;;;;;7.30;2.00;;;18.50;47.00;;;;;;5086048;28;20229;-85
2023/02/15 09:34:55;;;;;;;4.70;2.00;;;18.60;46.90;;;;;;5086114;28;20269;-84
2023/02/15 09:37:29;;;;;;;6.25;2.42;;;18.60;47.00;;;;;;5063542;28;20220;-86
2023/02/15 09:39:56;;;;;;;8.55;2.20;;;18.60;47.00;;;;;;5076132;28;20204;-85
2023/02/15 09:42:45;;;;;;;6.40;2.17;;;18.60;47.00;;;;;;5074612;28;20177;-84
2023/02/15 09:45:34;;;;;;;8.70;2.38;;;18.50;47.10;;;;;;5072622;28;20181;-83
2023/02/15 09:48:21;;;;;;;11.20;2.80;;;18.60;47.10;;;;;;5070319;28;20675;-83
2023/02/15 09:51:06;;;;;;;11.35;2.30;;;18.60;47.30;;;;;;5051024;28;20181;-84
2023/02/15 09:54:03;;;;;;;13.18;2.50;;;18.60;47.10;;;;;;5047677;28;20176;-84
2023/02/15 09:56:37;;;;;;;50.58;4.38;;;18.60;47.10;;;;;;5091150;28;20249;-83
2023/02/15 09:59:26;;;;;;;36.85;3.70;;;18.60;47.10;;;;;;5074438;28;20287;-85
2023/02/15 10:02:17;;;;;;;37.58;4.22;;;18.60;47.20;;;;;;5073769;28;20685;-84
2023/02/15 10:05:29;;;;;;;30.85;3.33;;;18.60;47.30;;;;;;5080987;28;20267;-83
2023/02/15 10:08:13;;;;;;;22.38;3.50;;;18.70;47.30;;;;;;5083212;28;20177;-85
2023/02/15 10:11:38;;;;;;;27.45;3.50;;;18.70;47.30;;;;;;5098020;28;20195;-84
2023/02/15 10:14:03;;;;;;;23.20;3.58;;;18.60;47.50;;;;;;5094313;28;20180;-84
2023/02/15 10:16:46;;;;;;;24.48;3.15;;;18.60;47.50;;;;;;5093990;28;20639;-84
2023/02/15 10:19:26;;;;;;;17.67;2.67;;;18.60;47.60;;;;;;5099131;28;20183;-85
2023/02/15 10:22:15;;;;;;;19.73;3.15;;;18.60;47.60;;;;;;5097128;28;20198;-84
2023/02/15 10:25:04;;;;;;;;;;;;;;;;;;;;;
2023/02/15 10:27:31;;;;;;;18.05;2.80;;;18.70;47.50;;;;;;5066509;28;20724;-85
2023/02/15 10:30:12;;;;;;;21.08;2.60;;;18.60;47.60;;;;;;5067804;28;20210;-84
2023/02/15 10:32:49;;;;;;;11.52;2.90;;;18.60;47.70;;;;;;5119664;28;20156;-84
2023/02/15 10:35:20;;;;;;;13.27;2.47;;;18.50;47.70;;;;;;5084823;28;20231;-84
2023/02/15 10:37:57;;;;;;;17.85;3.05;;;18.60;47.70;;;;;;5083764;28;20295;-84
2023/02/15 10:40:38;;;;;;;13.80;3.38;;;18.60;47.60;;;;;;5066837;28;20167;-84
2023/02/15 10:43:27;;;;;;;13.80;2.88;;;18.60;47.70;;;;;;5083140;28;20202;-84
2023/02/15 10:46:23;;;;;;;12.32;2.67;;;18.60;47.80;;;;;;5098923;28;20254;-83
2023/02/15 10:49:22;;;;;;;17.27;2.95;;;18.60;47.60;;;;;;5098780;28;20174;-83
2023/02/15 10:52:21;;;;;;;15.25;2.80;;;18.60;47.70;;;;;;5082382;28;20164;-83
2023/02/15 10:55:11;;;;;;;12.05;2.70;;;18.60;47.60;;;;;;5097082;28;20157;-85
2023/02/15 10:58:11;;;;;;;7.43;2.50;;;18.60;47.60;;;;;;5113701;28;20240;-83
2023/02/15 11:01:01;;;;;;;7.68;2.17;;;18.60;47.60;;;;;;5100146;28;20171;-83
2023/02/15 11:04:08;;;;;;;12.07;2.65;;;18.70;47.60;;;;;;5084031;28;20252;-87
2023/02/15 11:06:38;;;;;;;12.88;2.42;;;18.60;47.50;;;;;;5095606;28;20623;-86
2023/02/15 11:09:20;;;;;;;;;;;;;;;;;;;;;
2023/02/15 11:12:01;;;;;;;9.02;2.47;;;18.70;47.60;;;;;;5089184;28;20592;-86
2023/02/15 11:15:00;;;;;;;10.15;2.35;;;18.70;47.50;;;;;;5049711;28;20169;-83
2023/02/15 11:17:45;;;;;;;5.93;2.40;;;18.60;47.60;;;;;;5112040;28;20216;-83
2023/02/15 11:20:25;;;;;;;13.65;2.80;;;18.60;47.50;;;;;;5095479;28;20169;-84
2023/02/15 11:22:53;;;;;;;5.30;2.08;;;18.60;47.50;;;;;;5098234;28;20196;-85
2023/02/15 11:25:23;;;;;;;6.90;2.28;;;18.60;47.50;;;;;;5096856;28;20214;-83
2023/02/15 11:27:48;;;;;;;6.30;2.13;;;18.70;47.50;;;;;;5080693;28;20157;-84
2023/02/15 11:30:19;;;;;;;9.55;2.60;;;18.70;47.30;;;;;;5064992;28;20251;-85
2023/02/15 11:32:45;;;;;;;7.47;2.60;;;18.60;47.30;;;;;;5078293;28;20196;-84
2023/02/15 11:35:21;;;;;;;6.30;2.45;;;18.70;47.30;;;;;;5063464;28;20164;-85
2023/02/15 11:38:13;;;;;;;9.10;2.28;;;18.70;47.20;;;;;;5082502;28;20263;-87
2023/02/15 11:41:04;;;;;;;8.75;2.10;;;18.70;47.20;;;;;;5087502;28;20176;-85
2023/02/15 11:43:36;;;;;;;5.65;2.10;;;18.70;47.20;;;;;;5100997;28;20176;-83
2023/02/15 11:46:02;;;;;;;8.10;2.88;;;18.70;47.10;;;;;;5120170;28;20180;-84
2023/02/15 11:48:30;;;;;;;8.63;2.80;;;18.70;47.10;;;;;;5119770;28;20530;-85
2023/02/15 11:50:55;;;;;;;6.80;2.40;;;18.70;47.10;;;;;;5117741;28;20233;-85
2023/02/15 11:53:24;;;;;;;8.23;2.70;;;18.60;47.10;;;;;;5099499;28;20183;-84
2023/02/15 11:55:51;;;;;;;5.65;2.10;;;18.70;47.20;;;;;;5115736;28;20152;-84
2023/02/15 11:58:40;;;;;;;5.82;2.53;;;18.50;47.00;;;;;;5116209;28;20194;-85
2023/02/15 12:01:31;;;;;;;5.18;2.30;;;18.60;47.10;;;;;;5101346;28;20168;-85
2023/02/15 12:04:20;;;;;;;7.85;2.55;;;18.70;47.10;;;;;;5101393;28;20179;-84
2023/02/15 12:07:00;;;;;;;8.02;2.20;;;18.70;46.90;;;;;;5120416;28;20175;-86
2023/02/15 12:09:36;;;;;;;8.27;2.33;;;18.70;47.00;;;;;;5080178;28;20225;-85
2023/02/15 12:12:25;;;;;;;6.90;2.25;;;18.70;47.10;;;;;;5045920;28;20617;-85
2023/02/15 12:14:56;;;;;;;5.97;2.33;;;18.70;46.90;;;;;;5080953;28;20309;-87
2023/02/15 12:17:25;;;;;;;6.85;2.50;;;18.70;46.90;;;;;;5023807;28;20883;-83
2023/02/15 12:19:52;;;;;;;9.48;2.42;;;18.70;46.90;;;;;;5039014;28;20706;-85
2023/02/15 12:22:40;;;;;;;5.55;2.47;;;18.70;47.60;;;;;;5017357;28;20266;-86
2023/02/15 12:25:22;;;;;;;8.43;2.47;;;18.70;46.90;;;;;;4958033;29;20232;-85
2023/02/15 12:28:10;;;;;;;9.65;2.47;;;18.70;46.80;;;;;;4975354;28;20193;-85
2023/02/15 12:30:50;;;;;;;7.13;2.45;;;18.70;46.80;;;;;;4953590;29;20187;-86
2023/02/15 12:33:33;;;;;;;;;;;;;;;;;;;;;
2023/02/15 12:36:22;;;;;;;7.22;2.67;;;18.70;46.60;;;;;;4969465;28;20581;-84
2023/02/15 12:39:19;;;;;;;4.07;2.20;;;18.80;46.60;;;;;;4971309;28;20216;-83
2023/02/15 12:42:01;;;;;;;4.82;2.70;;;18.80;46.50;;;;;;4974166;28;20236;-84
2023/02/15 12:44:33;;;;;;;7.00;2.17;;;18.80;46.60;;;;;;4988257;28;20259;-85
2023/02/15 12:47:07;;;;;;;6.57;2.55;;;18.80;46.50;;;;;;4969878;28;20611;-86
2023/02/15 12:50:00;;;;;;;6.03;2.55;;;18.90;46.50;;;;;;4995050;28;20275;-85
2023/02/15 12:52:29;;;;;;;5.68;2.58;;;18.80;46.60;;;;;;4992040;28;20195;-86
2023/02/15 12:55:11;;;;;;;5.53;2.53;;;18.80;46.60;;;;;;4996062;28;20171;-85
2023/02/15 12:58:06;;;;;;;6.35;2.40;;;18.80;46.60;;;;;;5054275;28;20243;-85
2023/02/15 13:00:35;;;;;;;7.50;2.40;;;18.80;46.50;;;;;;5054670;28;20212;-85
2023/02/15 13:03:18;;;;;;;9.27;2.35;;;18.80;46.30;;;;;;5021429;28;20540;-84
2023/02/15 13:05:45;;;;;;;7.53;2.47;;;18.80;46.70;;;;;;5032778;28;20182;-84
2023/02/15 13:08:21;;;;;;;5.32;2.65;;;18.80;46.60;;;;;;5012739;28;20214;-84
2023/02/15 13:11:09;;;;;;;6.35;2.80;;;18.70;46.30;;;;;;5013982;28;20245;-86
2023/02/15 13:13:46;;;;;;;9.65;3.03;;;18.80;46.40;;;;;;4991041;28;20675;-86
2023/02/15 13:16:14;;;;;;;6.95;2.53;;;18.70;46.40;;;;;;4973714;28;20210;-85
2023/02/15 13:18:42;;;;;;;6.28;3.10;;;18.80;46.40;;;;;;4978759;28;20580;-84
2023/02/15 13:21:26;;;;;;;8.77;2.60;;;18.70;46.50;;;;;;5009421;28;20186;-85
2023/02/15 13:24:04;;;;;;;6.25;2.72;;;18.80;46.50;;;;;;5010647;28;20171;-86
2023/02/15 13:26:33;;;;;;;5.80;2.90;;;18.80;46.50;;;;;;4987012;28;20188;-84
2023/02/15 13:29:09;;;;;;;6.10;2.80;;;18.80;46.40;;;;;;4941583;28;20192;-83
2023/02/15 13:31:35;;;;;;;9.73;2.90;;;18.80;46.50;;;;;;4957425;28;20180;-84
2023/02/15 13:34:12;;;;;;;5.97;2.42;;;18.70;46.40;;;;;;4989877;28;20185;-85
2023/02/15 13:37:04;;;;;;;4.18;2.47;;;18.80;46.60;;;;;;4967486;28;20180;-85
2023/02/15 13:39:54;;;;;;;7.35;3.40;;;18.80;46.50;;;;;;5034381;28;20182;-84
2023/02/15 13:42:38;;;;;;;7.20;3.00;;;18.80;46.30;;;;;;5031435;28;20174;-86
2023/02/15 13:45:28;;;;;;;4.95;2.70;;;18.90;46.70;;;;;;5065353;28;20185;-85
2023/02/15 13:48:22;;;;;;;5.70;2.90;;;18.80;46.40;;;;;;5057840;28;20181;-85
2023/02/15 13:50:52;;;;;;;6.78;2.67;;;18.80;46.70;;;;;;5061834;28;20169;-86
2023/02/15 13:54:05;;;;;;;5.40;2.60;;;18.90;46.60;;;;;;5042287;28;20180;-86